sensor_id;sensor_type;location;lat;lon;timestamp;temperature;humidity
2611;DHT22;5612;51.134;17.058;2022-08-11T00:01:12;18.80;99.90
2611;DHT22;5612;51.134;17.058;2022-08-11T00:03:44;18.70;99.90
2611;DHT22;5612;51.134;17.058;2022-08-11T00:06:22;18.70;99.90
2611;DHT22;5612;51.134;17.058;2022-08-11T00:08:52;18.60;99.90
2611;DHT22;5612;51.134;17.058;2022-08-11T00:11:22;18.60;99.90
2611;DHT22;5612;51.134;17.058;2022-08-11T00:13:59;18.50;99.90
2611;DHT22;5612;51.134;17.058;2022-08-11T00:16:28;18.50;99.90
2611;DHT22;5612;51.134;17.058;2022-08-11T00:18:58;18.50;99.90
2611;DHT22;5612;51.134;17.058;2022-08-11T00:21:29;18.50;99.90
2611;DHT22;5612;51.134;17.058;2022-08-11T00:24:19;18.40;99.90
2611;DHT22;5612;51.134;17.058;2022-08-11T00:26:53;18.30;1.00
2611;DHT22;5612;51.134;17.058;2022-08-11T00:29:22;18.20;1.00
2611;DHT22;5612;51.134;17.058;2022-08-11T00:31:52;18.10;1.00
2611;DHT22;5612;51.134;17.058;2022-08-11T00:34:24;18.10;1.00
2611;DHT22;5612;51.134;17.058;2022-08-11T00:36:59;18.00;1.00
2611;DHT22;5612;51.134;17.058;2022-08-11T00:39:31;18.00;1.00
2611;DHT22;5612;51.134;17.058;2022-08-11T00:42:11;17.90;1.00
2611;DHT22;5612;51.134;17.058;2022-08-11T00:44:51;17.90;1.00
2611;DHT22;5612;51.134;17.058;2022-08-11T00:47:32;17.80;1.00
2611;DHT22;5612;51.134;17.058;2022-08-11T00:50:12;17.80;1.00
2611;DHT22;5612;51.134;17.058;2022-08-11T00:56:28;17.60;10.40
2611;DHT22;5612;51.134;17.058;2022-08-11T00:59:46;17.60;99.90
2611;DHT22;5612;51.134;17.058;2022-08-11T01:02:18;17.50;99.90
2611;DHT22;5612;51.134;17.058;2022-08-11T01:05:42;17.50;99.90
2611;DHT22;5612;51.134;17.058;2022-08-11T01:08:35;17.40;99.90
2611;DHT22;5612;51.134;17.058;2022-08-11T01:11:39;17.40;99.90
2611;DHT22;5612;51.134;17.058;2022-08-11T01:14:54;17.40;99.90
2611;DHT22;5612;51.134;17.058;2022-08-11T01:21:22;17.20;1.00
2611;DHT22;5612;51.134;17.058;2022-08-11T01:30:47;17.00;1.00
2611;DHT22;5612;51.134;17.058;2022-08-11T01:40:06;16.90;99.90
2611;DHT22;5612;51.134;17.058;2022-08-11T01:46:17;16.70;99.90
2611;DHT22;5612;51.134;17.058;2022-08-11T01:49:00;16.60;1.00
2611;DHT22;5612;51.134;17.058;2022-08-11T01:52:14;16.60;1.00
2611;DHT22;5612;51.134;17.058;2022-08-11T01:55:06;16.50;1.00
2611;DHT22;5612;51.134;17.058;2022-08-11T01:57:45;16.50;1.00
2611;DHT22;5612;51.134;17.058;2022-08-11T02:00:19;16.50;1.00
2611;DHT22;5612;51.134;17.058;2022-08-11T02:02:56;16.50;99.90
2611;DHT22;5612;51.134;17.058;2022-08-11T02:05:46;16.50;99.90
2611;DHT22;5612;51.134;17.058;2022-08-11T02:08:44;16.50;99.90
2611;DHT22;5612;51.134;17.058;2022-08-11T02:11:24;16.40;99.90
2611;DHT22;5612;51.134;17.058;2022-08-11T02:14:14;16.40;91.90
2611;DHT22;5612;51.134;17.058;2022-08-11T02:17:11;16.40;99.90
2611;DHT22;5612;51.134;17.058;2022-08-11T02:19:53;16.40;99.90
2611;DHT22;5612;51.134;17.058;2022-08-11T02:22:48;16.40;99.90
2611;DHT22;5612;51.134;17.058;2022-08-11T02:25:49;16.30;69.70
2611;DHT22;5612;51.134;17.058;2022-08-11T02:28:28;16.30;99.90
2611;DHT22;5612;51.134;17.058;2022-08-11T02:31:12;16.20;1.00
2611;DHT22;5612;51.134;17.058;2022-08-11T02:34:37;16.20;1.00
2611;DHT22;5612;51.134;17.058;2022-08-11T02:37:23;16.20;99.90
2611;DHT22;5612;51.134;17.058;2022-08-11T02:40:15;16.10;1.00
2611;DHT22;5612;51.134;17.058;2022-08-11T02:43:06;16.10;99.90
2611;DHT22;5612;51.134;17.058;2022-08-11T02:45:46;16.00;99.90
2611;DHT22;5612;51.134;17.058;2022-08-11T02:48:45;15.90;1.00
2611;DHT22;5612;51.134;17.058;2022-08-11T02:51:41;15.90;12.70
2611;DHT22;5612;51.134;17.058;2022-08-11T02:54:16;15.80;99.90
2611;DHT22;5612;51.134;17.058;2022-08-11T02:56:56;15.80;99.90
2611;DHT22;5612;51.134;17.058;2022-08-11T02:59:42;15.80;1.00
2611;DHT22;5612;51.134;17.058;2022-08-11T03:02:32;15.70;99.90
2611;DHT22;5612;51.134;17.058;2022-08-11T03:05:14;15.80;99.90
2611;DHT22;5612;51.134;17.058;2022-08-11T03:10:53;15.70;99.90
2611;DHT22;5612;51.134;17.058;2022-08-11T03:13:45;15.70;99.90
2611;DHT22;5612;51.134;17.058;2022-08-11T03:16:42;15.70;99.90
2611;DHT22;5612;51.134;17.058;2022-08-11T03:19:25;15.60;99.90
2611;DHT22;5612;51.134;17.058;2022-08-11T03:22:04;15.60;99.90
2611;DHT22;5612;51.134;17.058;2022-08-11T03:24:56;15.60;99.90
2611;DHT22;5612;51.134;17.058;2022-08-11T03:27:34;15.60;99.90
2611;DHT22;5612;51.134;17.058;2022-08-11T03:30:09;15.50;99.90
2611;DHT22;5612;51.134;17.058;2022-08-11T03:32:50;15.50;99.90
2611;DHT22;5612;51.134;17.058;2022-08-11T03:35:41;15.50;99.90
2611;DHT22;5612;51.134;17.058;2022-08-11T03:38:14;15.50;99.90
2611;DHT22;5612;51.134;17.058;2022-08-11T03:40:56;15.50;99.90
2611;DHT22;5612;51.134;17.058;2022-08-11T03:44:09;15.50;99.90
2611;DHT22;5612;51.134;17.058;2022-08-11T03:47:00;15.50;1.00
2611;DHT22;5612;51.134;17.058;2022-08-11T03:49:42;15.40;99.90
2611;DHT22;5612;51.134;17.058;2022-08-11T03:52:30;15.40;1.00
2611;DHT22;5612;51.134;17.058;2022-08-11T03:55:09;15.40;1.00
2611;DHT22;5612;51.134;17.058;2022-08-11T03:58:15;15.40;1.00
2611;DHT22;5612;51.134;17.058;2022-08-11T04:01:30;15.40;1.00
2611;DHT22;5612;51.134;17.058;2022-08-11T04:04:43;15.50;1.00
2611;DHT22;5612;51.134;17.058;2022-08-11T04:17:26;15.60;1.00
2611;DHT22;5612;51.134;17.058;2022-08-11T04:23:39;15.70;1.00
2611;DHT22;5612;51.134;17.058;2022-08-11T04:26:48;15.70;7.90
2611;DHT22;5612;51.134;17.058;2022-08-11T04:30:02;15.70;99.90
2611;DHT22;5612;51.134;17.058;2022-08-11T04:33:20;15.80;99.90
2611;DHT22;5612;51.134;17.058;2022-08-11T04:36:09;15.80;29.80
2611;DHT22;5612;51.134;17.058;2022-08-11T04:39:07;15.90;60.20
2611;DHT22;5612;51.134;17.058;2022-08-11T04:42:27;16.00;1.00
2611;DHT22;5612;51.134;17.058;2022-08-11T04:45:45;16.00;1.00
2611;DHT22;5612;51.134;17.058;2022-08-11T04:48:38;16.10;1.00
2611;DHT22;5612;51.134;17.058;2022-08-11T04:52:04;16.30;1.00
2611;DHT22;5612;51.134;17.058;2022-08-11T04:55:25;16.30;1.00
2611;DHT22;5612;51.134;17.058;2022-08-11T04:58:20;16.40;99.90
2611;DHT22;5612;51.134;17.058;2022-08-11T05:01:21;16.50;99.90
2611;DHT22;5612;51.134;17.058;2022-08-11T05:04:45;16.60;1.00
2611;DHT22;5612;51.134;17.058;2022-08-11T05:08:13;16.70;1.00
2611;DHT22;5612;51.134;17.058;2022-08-11T05:11:11;16.90;99.90
2611;DHT22;5612;51.134;17.058;2022-08-11T05:13:47;16.90;99.90
2611;DHT22;5612;51.134;17.058;2022-08-11T05:16:57;17.00;1.00
2611;DHT22;5612;51.134;17.058;2022-08-11T05:19:59;17.10;99.90
2611;DHT22;5612;51.134;17.058;2022-08-11T05:22:47;17.10;99.90
2611;DHT22;5612;51.134;17.058;2022-08-11T05:25:35;17.20;99.90
2611;DHT22;5612;51.134;17.058;2022-08-11T05:28:49;17.50;99.90
2611;DHT22;5612;51.134;17.058;2022-08-11T05:31:57;17.60;99.90
2611;DHT22;5612;51.134;17.058;2022-08-11T05:34:45;17.70;99.90
2611;DHT22;5612;51.134;17.058;2022-08-11T05:37:22;17.80;99.90
2611;DHT22;5612;51.134;17.058;2022-08-11T05:39:58;17.90;99.90
2611;DHT22;5612;51.134;17.058;2022-08-11T05:42:55;18.00;99.90
2611;DHT22;5612;51.134;17.058;2022-08-11T05:45:44;18.10;99.90
2611;DHT22;5612;51.134;17.058;2022-08-11T05:48:40;18.00;38.80
2611;DHT22;5612;51.134;17.058;2022-08-11T05:51:33;18.10;99.90
2611;DHT22;5612;51.134;17.058;2022-08-11T05:54:22;18.30;1.00
2611;DHT22;5612;51.134;17.058;2022-08-11T05:57:18;18.30;1.00
2611;DHT22;5612;51.134;17.058;2022-08-11T06:00:10;18.40;1.00
2611;DHT22;5612;51.134;17.058;2022-08-11T06:02:41;18.60;41.30
2611;DHT22;5612;51.134;17.058;2022-08-11T06:05:11;18.70;29.10
2611;DHT22;5612;51.134;17.058;2022-08-11T06:07:47;18.70;1.00
2611;DHT22;5612;51.134;17.058;2022-08-11T06:10:32;18.90;1.00
2611;DHT22;5612;51.134;17.058;2022-08-11T06:13:14;18.90;1.00
2611;DHT22;5612;51.134;17.058;2022-08-11T06:15:48;19.10;1.00
2611;DHT22;5612;51.134;17.058;2022-08-11T06:18:19;19.30;1.00
2611;DHT22;5612;51.134;17.058;2022-08-11T06:20:50;19.70;1.00
2611;DHT22;5612;51.134;17.058;2022-08-11T06:23:21;20.20;1.00
2611;DHT22;5612;51.134;17.058;2022-08-11T06:25:52;20.80;1.00
2611;DHT22;5612;51.134;17.058;2022-08-11T06:28:30;21.40;1.00
2611;DHT22;5612;51.134;17.058;2022-08-11T06:31:01;22.20;1.00
2611;DHT22;5612;51.134;17.058;2022-08-11T06:33:36;22.70;1.00
2611;DHT22;5612;51.134;17.058;2022-08-11T06:36:12;23.30;1.00
2611;DHT22;5612;51.134;17.058;2022-08-11T06:38:58;23.90;1.00
2611;DHT22;5612;51.134;17.058;2022-08-11T06:41:33;24.30;1.00
2611;DHT22;5612;51.134;17.058;2022-08-11T06:44:15;24.80;1.00
2611;DHT22;5612;51.134;17.058;2022-08-11T06:46:48;25.40;1.00
2611;DHT22;5612;51.134;17.058;2022-08-11T06:49:21;26.00;1.00
2611;DHT22;5612;51.134;17.058;2022-08-11T06:52:10;26.70;1.00
2611;DHT22;5612;51.134;17.058;2022-08-11T06:55:05;27.40;99.90
2611;DHT22;5612;51.134;17.058;2022-08-11T06:57:54;28.00;99.90
2611;DHT22;5612;51.134;17.058;2022-08-11T07:00:41;28.60;99.90
2611;DHT22;5612;51.134;17.058;2022-08-11T07:03:16;29.40;99.90
2611;DHT22;5612;51.134;17.058;2022-08-11T07:05:49;30.10;99.90
2611;DHT22;5612;51.134;17.058;2022-08-11T07:08:50;30.30;99.90
2611;DHT22;5612;51.134;17.058;2022-08-11T07:12:01;30.80;99.90
2611;DHT22;5612;51.134;17.058;2022-08-11T07:14:55;30.70;99.90
2611;DHT22;5612;51.134;17.058;2022-08-11T07:17:44;31.20;99.90
2611;DHT22;5612;51.134;17.058;2022-08-11T07:20:17;31.60;99.90
2611;DHT22;5612;51.134;17.058;2022-08-11T07:23:08;32.10;99.90
2611;DHT22;5612;51.134;17.058;2022-08-11T07:25:56;32.60;99.90
2611;DHT22;5612;51.134;17.058;2022-08-11T07:29:00;33.20;99.90
2611;DHT22;5612;51.134;17.058;2022-08-11T07:31:33;34.00;99.90
2611;DHT22;5612;51.134;17.058;2022-08-11T07:34:14;34.00;99.90
2611;DHT22;5612;51.134;17.058;2022-08-11T07:36:49;34.30;99.90
2611;DHT22;5612;51.134;17.058;2022-08-11T07:39:21;35.00;99.90
2611;DHT22;5612;51.134;17.058;2022-08-11T07:41:52;35.00;99.90
2611;DHT22;5612;51.134;17.058;2022-08-11T07:44:24;35.10;99.90
2611;DHT22;5612;51.134;17.058;2022-08-11T07:47:01;35.50;99.90
2611;DHT22;5612;51.134;17.058;2022-08-11T07:49:48;35.90;99.90
2611;DHT22;5612;51.134;17.058;2022-08-11T07:52:41;36.20;99.90
2611;DHT22;5612;51.134;17.058;2022-08-11T07:55:14;36.00;99.90
2611;DHT22;5612;51.134;17.058;2022-08-11T07:57:46;36.50;99.90
2611;DHT22;5612;51.134;17.058;2022-08-11T08:00:49;37.10;99.90
2611;DHT22;5612;51.134;17.058;2022-08-11T08:03:49;37.10;99.90
2611;DHT22;5612;51.134;17.058;2022-08-11T08:06:36;36.50;99.90
2611;DHT22;5612;51.134;17.058;2022-08-11T08:09:23;36.80;99.90
2611;DHT22;5612;51.134;17.058;2022-08-11T08:12:12;37.00;99.90
2611;DHT22;5612;51.134;17.058;2022-08-11T08:15:04;37.90;99.90
2611;DHT22;5612;51.134;17.058;2022-08-11T08:17:51;38.40;99.90
2611;DHT22;5612;51.134;17.058;2022-08-11T08:20:45;38.10;99.90
2611;DHT22;5612;51.134;17.058;2022-08-11T08:23:17;38.80;99.90
2611;DHT22;5612;51.134;17.058;2022-08-11T08:26:05;39.30;99.90
2611;DHT22;5612;51.134;17.058;2022-08-11T08:28:59;39.00;99.90
2611;DHT22;5612;51.134;17.058;2022-08-11T08:31:42;39.10;99.90
2611;DHT22;5612;51.134;17.058;2022-08-11T08:34:13;39.60;99.90
2611;DHT22;5612;51.134;17.058;2022-08-11T08:36:43;39.60;99.90
2611;DHT22;5612;51.134;17.058;2022-08-11T08:39:13;40.00;99.90
2611;DHT22;5612;51.134;17.058;2022-08-11T08:41:43;39.50;99.90
2611;DHT22;5612;51.134;17.058;2022-08-11T08:44:14;39.10;99.90
2611;DHT22;5612;51.134;17.058;2022-08-11T08:47:06;39.30;99.90
2611;DHT22;5612;51.134;17.058;2022-08-11T08:49:39;39.90;99.90
2611;DHT22;5612;51.134;17.058;2022-08-11T08:52:14;39.40;99.90
2611;DHT22;5612;51.134;17.058;2022-08-11T08:55:02;39.70;99.90
2611;DHT22;5612;51.134;17.058;2022-08-11T08:57:34;40.00;99.90
2611;DHT22;5612;51.134;17.058;2022-08-11T09:00:08;40.60;99.90
2611;DHT22;5612;51.134;17.058;2022-08-11T09:02:40;40.90;99.90
2611;DHT22;5612;51.134;17.058;2022-08-11T09:05:10;41.70;99.90
2611;DHT22;5612;51.134;17.058;2022-08-11T09:07:40;41.80;99.90
2611;DHT22;5612;51.134;17.058;2022-08-11T09:10:10;42.20;99.90
2611;DHT22;5612;51.134;17.058;2022-08-11T09:12:40;42.30;99.90
2611;DHT22;5612;51.134;17.058;2022-08-11T09:15:12;42.30;99.90
2611;DHT22;5612;51.134;17.058;2022-08-11T09:17:47;42.80;99.90
2611;DHT22;5612;51.134;17.058;2022-08-11T09:20:18;42.80;99.90
2611;DHT22;5612;51.134;17.058;2022-08-11T09:22:49;42.90;99.90
2611;DHT22;5612;51.134;17.058;2022-08-11T09:25:56;42.90;99.90
2611;DHT22;5612;51.134;17.058;2022-08-11T09:28:44;42.70;99.90
2611;DHT22;5612;51.134;17.058;2022-08-11T09:31:15;42.40;99.90
2611;DHT22;5612;51.134;17.058;2022-08-11T09:33:50;41.90;99.90
2611;DHT22;5612;51.134;17.058;2022-08-11T09:36:20;40.70;99.90
2611;DHT22;5612;51.134;17.058;2022-08-11T09:39:06;40.20;99.90
2611;DHT22;5612;51.134;17.058;2022-08-11T09:41:53;39.50;99.90
2611;DHT22;5612;51.134;17.058;2022-08-11T09:44:30;39.30;99.90
2611;DHT22;5612;51.134;17.058;2022-08-11T09:47:21;39.30;99.90
2611;DHT22;5612;51.134;17.058;2022-08-11T09:49:54;38.90;99.90
2611;DHT22;5612;51.134;17.058;2022-08-11T09:52:29;38.70;99.90
2611;DHT22;5612;51.134;17.058;2022-08-11T09:55:00;38.40;99.90
2611;DHT22;5612;51.134;17.058;2022-08-11T09:57:32;37.90;99.90
2611;DHT22;5612;51.134;17.058;2022-08-11T10:00:27;37.60;99.90
2611;DHT22;5612;51.134;17.058;2022-08-11T10:02:58;38.00;99.90
2611;DHT22;5612;51.134;17.058;2022-08-11T10:05:29;38.00;99.90
2611;DHT22;5612;51.134;17.058;2022-08-11T10:08:17;38.30;99.90
2611;DHT22;5612;51.134;17.058;2022-08-11T10:10:46;37.80;99.90
2611;DHT22;5612;51.134;17.058;2022-08-11T10:13:18;37.80;99.90
2611;DHT22;5612;51.134;17.058;2022-08-11T10:16:12;37.80;99.90
2611;DHT22;5612;51.134;17.058;2022-08-11T10:18:48;37.40;99.90
2611;DHT22;5612;51.134;17.058;2022-08-11T10:21:29;38.20;99.90
2611;DHT22;5612;51.134;17.058;2022-08-11T10:24:02;40.20;99.90
2611;DHT22;5612;51.134;17.058;2022-08-11T10:26:51;41.90;99.90
2611;DHT22;5612;51.134;17.058;2022-08-11T10:29:30;43.10;99.90
2611;DHT22;5612;51.134;17.058;2022-08-11T10:32:20;42.60;99.90
2611;DHT22;5612;51.134;17.058;2022-08-11T10:35:28;42.40;99.90
2611;DHT22;5612;51.134;17.058;2022-08-11T10:37:57;43.10;99.90
2611;DHT22;5612;51.134;17.058;2022-08-11T10:40:39;44.30;99.90
2611;DHT22;5612;51.134;17.058;2022-08-11T10:43:09;44.70;1.00
2611;DHT22;5612;51.134;17.058;2022-08-11T10:45:59;45.00;1.00
2611;DHT22;5612;51.134;17.058;2022-08-11T10:48:57;45.90;1.00
2611;DHT22;5612;51.134;17.058;2022-08-11T10:51:28;46.90;1.00
2611;DHT22;5612;51.134;17.058;2022-08-11T10:54:18;45.20;1.00
2611;DHT22;5612;51.134;17.058;2022-08-11T10:57:05;42.40;99.90
2611;DHT22;5612;51.134;17.058;2022-08-11T10:59:54;39.90;99.90
2611;DHT22;5612;51.134;17.058;2022-08-11T11:02:23;38.10;99.90
2611;DHT22;5612;51.134;17.058;2022-08-11T11:05:02;37.10;99.90
2611;DHT22;5612;51.134;17.058;2022-08-11T11:07:40;37.00;99.90
2611;DHT22;5612;51.134;17.058;2022-08-11T11:10:15;38.50;99.90
2611;DHT22;5612;51.134;17.058;2022-08-11T11:12:46;40.00;99.90
2611;DHT22;5612;51.134;17.058;2022-08-11T11:15:35;40.10;99.90
2611;DHT22;5612;51.134;17.058;2022-08-11T11:18:24;39.00;99.90
2611;DHT22;5612;51.134;17.058;2022-08-11T11:20:57;37.60;99.90
2611;DHT22;5612;51.134;17.058;2022-08-11T11:23:34;37.30;99.90
2611;DHT22;5612;51.134;17.058;2022-08-11T11:26:29;36.20;99.90
2611;DHT22;5612;51.134;17.058;2022-08-11T11:29:21;35.60;99.90
2611;DHT22;5612;51.134;17.058;2022-08-11T11:32:17;34.90;99.90
2611;DHT22;5612;51.134;17.058;2022-08-11T11:35:17;36.00;99.90
2611;DHT22;5612;51.134;17.058;2022-08-11T11:37:54;38.30;99.90
2611;DHT22;5612;51.134;17.058;2022-08-11T11:40:33;40.30;99.90
2611;DHT22;5612;51.134;17.058;2022-08-11T11:43:04;41.40;99.90
2611;DHT22;5612;51.134;17.058;2022-08-11T11:45:34;39.80;99.90
2611;DHT22;5612;51.134;17.058;2022-08-11T11:48:04;38.70;99.90
2611;DHT22;5612;51.134;17.058;2022-08-11T11:50:35;38.50;99.90
2611;DHT22;5612;51.134;17.058;2022-08-11T11:53:06;40.00;99.90
2611;DHT22;5612;51.134;17.058;2022-08-11T11:55:37;41.50;99.90
2611;DHT22;5612;51.134;17.058;2022-08-11T11:58:07;42.40;99.90
2611;DHT22;5612;51.134;17.058;2022-08-11T12:00:54;43.80;99.90
2611;DHT22;5612;51.134;17.058;2022-08-11T12:03:43;44.80;99.90
2611;DHT22;5612;51.134;17.058;2022-08-11T12:06:15;43.90;99.90
2611;DHT22;5612;51.134;17.058;2022-08-11T12:08:47;43.50;99.90
2611;DHT22;5612;51.134;17.058;2022-08-11T12:11:21;43.60;99.90
2611;DHT22;5612;51.134;17.058;2022-08-11T12:14:10;43.80;99.90
2611;DHT22;5612;51.134;17.058;2022-08-11T12:16:41;43.40;99.90
2611;DHT22;5612;51.134;17.058;2022-08-11T12:19:12;42.90;99.90
2611;DHT22;5612;51.134;17.058;2022-08-11T12:21:42;40.80;99.90
2611;DHT22;5612;51.134;17.058;2022-08-11T12:24:28;40.30;99.90
2611;DHT22;5612;51.134;17.058;2022-08-11T12:27:16;41.10;99.90
2611;DHT22;5612;51.134;17.058;2022-08-11T12:29:53;42.40;99.90
2611;DHT22;5612;51.134;17.058;2022-08-11T12:32:24;42.40;99.90
2611;DHT22;5612;51.134;17.058;2022-08-11T12:34:53;43.30;99.90
2611;DHT22;5612;51.134;17.058;2022-08-11T12:37:27;43.40;99.90
2611;DHT22;5612;51.134;17.058;2022-08-11T12:39:59;44.40;99.90
2611;DHT22;5612;51.134;17.058;2022-08-11T12:43:11;44.90;99.90
2611;DHT22;5612;51.134;17.058;2022-08-11T12:46:07;43.70;99.90
2611;DHT22;5612;51.134;17.058;2022-08-11T12:48:41;42.40;99.90
2611;DHT22;5612;51.134;17.058;2022-08-11T12:51:33;40.30;99.90
2611;DHT22;5612;51.134;17.058;2022-08-11T12:54:55;38.90;99.90
2611;DHT22;5612;51.134;17.058;2022-08-11T12:57:31;38.00;99.90
2611;DHT22;5612;51.134;17.058;2022-08-11T13:00:19;37.20;99.90
2611;DHT22;5612;51.134;17.058;2022-08-11T13:03:07;36.90;99.90
2611;DHT22;5612;51.134;17.058;2022-08-11T13:05:56;37.80;99.90
2611;DHT22;5612;51.134;17.058;2022-08-11T13:08:26;38.60;99.90
2611;DHT22;5612;51.134;17.058;2022-08-11T13:10:57;39.50;99.90
2611;DHT22;5612;51.134;17.058;2022-08-11T13:13:46;40.80;99.90
2611;DHT22;5612;51.134;17.058;2022-08-11T13:16:27;41.50;99.90
2611;DHT22;5612;51.134;17.058;2022-08-11T13:18:57;42.20;99.90
2611;DHT22;5612;51.134;17.058;2022-08-11T13:21:28;42.70;99.90
2611;DHT22;5612;51.134;17.058;2022-08-11T13:23:57;42.80;99.90
2611;DHT22;5612;51.134;17.058;2022-08-11T13:26:34;42.80;99.90
2611;DHT22;5612;51.134;17.058;2022-08-11T13:29:17;42.80;99.90
2611;DHT22;5612;51.134;17.058;2022-08-11T13:31:48;42.20;99.90
2611;DHT22;5612;51.134;17.058;2022-08-11T13:34:18;42.40;99.90
2611;DHT22;5612;51.134;17.058;2022-08-11T13:36:50;42.60;99.90
2611;DHT22;5612;51.134;17.058;2022-08-11T13:39:20;42.40;99.90
2611;DHT22;5612;51.134;17.058;2022-08-11T13:41:52;42.00;99.90
2611;DHT22;5612;51.134;17.058;2022-08-11T13:44:24;41.90;99.90
2611;DHT22;5612;51.134;17.058;2022-08-11T13:47:00;42.20;99.90
2611;DHT22;5612;51.134;17.058;2022-08-11T13:49:31;42.80;99.90
2611;DHT22;5612;51.134;17.058;2022-08-11T13:52:00;42.70;99.90
2611;DHT22;5612;51.134;17.058;2022-08-11T13:54:31;42.90;99.90
2611;DHT22;5612;51.134;17.058;2022-08-11T13:57:04;43.20;99.90
2611;DHT22;5612;51.134;17.058;2022-08-11T13:59:58;43.40;99.90
2611;DHT22;5612;51.134;17.058;2022-08-11T14:02:56;43.20;99.90
2611;DHT22;5612;51.134;17.058;2022-08-11T14:05:28;41.30;99.90
2611;DHT22;5612;51.134;17.058;2022-08-11T14:08:00;40.20;99.90
2611;DHT22;5612;51.134;17.058;2022-08-11T14:10:31;39.60;99.90
2611;DHT22;5612;51.134;17.058;2022-08-11T14:13:06;39.80;99.90
2611;DHT22;5612;51.134;17.058;2022-08-11T14:15:53;40.10;99.90
2611;DHT22;5612;51.134;17.058;2022-08-11T14:18:26;40.60;99.90
2611;DHT22;5612;51.134;17.058;2022-08-11T14:20:58;41.30;99.90
2611;DHT22;5612;51.134;17.058;2022-08-11T14:23:47;41.90;99.90
2611;DHT22;5612;51.134;17.058;2022-08-11T14:26:17;42.50;99.90
2611;DHT22;5612;51.134;17.058;2022-08-11T14:28:55;42.70;99.90
2611;DHT22;5612;51.134;17.058;2022-08-11T14:31:27;42.80;99.90
2611;DHT22;5612;51.134;17.058;2022-08-11T14:34:01;43.20;99.90
2611;DHT22;5612;51.134;17.058;2022-08-11T14:36:33;43.20;99.90
2611;DHT22;5612;51.134;17.058;2022-08-11T14:39:06;43.70;99.90
2611;DHT22;5612;51.134;17.058;2022-08-11T14:41:40;43.20;99.90
2611;DHT22;5612;51.134;17.058;2022-08-11T14:44:39;42.60;99.90
2611;DHT22;5612;51.134;17.058;2022-08-11T14:47:28;41.80;99.90
2611;DHT22;5612;51.134;17.058;2022-08-11T14:50:00;40.80;99.90
2611;DHT22;5612;51.134;17.058;2022-08-11T14:52:43;40.20;99.90
2611;DHT22;5612;51.134;17.058;2022-08-11T14:55:13;40.10;99.90
2611;DHT22;5612;51.134;17.058;2022-08-11T14:58:01;39.20;99.90
2611;DHT22;5612;51.134;17.058;2022-08-11T15:00:31;37.60;99.90
2611;DHT22;5612;51.134;17.058;2022-08-11T15:03:03;36.40;99.90
2611;DHT22;5612;51.134;17.058;2022-08-11T15:05:43;35.00;99.90
2611;DHT22;5612;51.134;17.058;2022-08-11T15:08:28;34.10;99.90
2611;DHT22;5612;51.134;17.058;2022-08-11T15:11:18;34.00;99.90
2611;DHT22;5612;51.134;17.058;2022-08-11T15:14:07;35.20;99.90
2611;DHT22;5612;51.134;17.058;2022-08-11T15:16:37;36.30;99.90
2611;DHT22;5612;51.134;17.058;2022-08-11T15:19:25;37.20;99.90
2611;DHT22;5612;51.134;17.058;2022-08-11T15:22:09;37.70;99.90
2611;DHT22;5612;51.134;17.058;2022-08-11T15:24:57;38.20;99.90
2611;DHT22;5612;51.134;17.058;2022-08-11T15:27:28;38.30;99.90
2611;DHT22;5612;51.134;17.058;2022-08-11T15:30:15;37.70;99.90
2611;DHT22;5612;51.134;17.058;2022-08-11T15:33:04;37.60;99.90
2611;DHT22;5612;51.134;17.058;2022-08-11T15:35:52;37.20;99.90
2611;DHT22;5612;51.134;17.058;2022-08-11T15:38:43;36.80;99.90
2611;DHT22;5612;51.134;17.058;2022-08-11T15:41:25;36.60;99.90
2611;DHT22;5612;51.134;17.058;2022-08-11T15:44:28;36.40;99.90
2611;DHT22;5612;51.134;17.058;2022-08-11T15:47:36;35.80;99.90
2611;DHT22;5612;51.134;17.058;2022-08-11T15:50:12;35.10;99.90
2611;DHT22;5612;51.134;17.058;2022-08-11T15:52:47;33.90;99.90
2611;DHT22;5612;51.134;17.058;2022-08-11T15:55:18;32.90;99.90
2611;DHT22;5612;51.134;17.058;2022-08-11T15:57:52;31.90;99.90
2611;DHT22;5612;51.134;17.058;2022-08-11T16:00:39;31.60;99.90
2611;DHT22;5612;51.134;17.058;2022-08-11T16:03:38;31.40;99.90
2611;DHT22;5612;51.134;17.058;2022-08-11T16:06:37;31.40;99.90
2611;DHT22;5612;51.134;17.058;2022-08-11T16:09:19;31.20;99.90
2611;DHT22;5612;51.134;17.058;2022-08-11T16:11:52;31.10;99.90
2611;DHT22;5612;51.134;17.058;2022-08-11T16:14:23;30.90;99.90
2611;DHT22;5612;51.134;17.058;2022-08-11T16:17:14;30.70;99.90
2611;DHT22;5612;51.134;17.058;2022-08-11T16:19:51;30.30;99.90
2611;DHT22;5612;51.134;17.058;2022-08-11T16:22:25;30.00;99.90
2611;DHT22;5612;51.134;17.058;2022-08-11T16:25:05;29.70;99.90
2611;DHT22;5612;51.134;17.058;2022-08-11T16:27:59;29.50;99.90
2611;DHT22;5612;51.134;17.058;2022-08-11T16:30:31;29.10;99.90
2611;DHT22;5612;51.134;17.058;2022-08-11T16:33:02;28.80;99.90
2611;DHT22;5612;51.134;17.058;2022-08-11T16:35:54;28.60;99.90
2611;DHT22;5612;51.134;17.058;2022-08-11T16:38:42;28.50;99.90
2611;DHT22;5612;51.134;17.058;2022-08-11T16:41:16;28.50;99.90
2611;DHT22;5612;51.134;17.058;2022-08-11T16:44:07;28.60;99.90
2611;DHT22;5612;51.134;17.058;2022-08-11T16:47:05;28.60;99.90
2611;DHT22;5612;51.134;17.058;2022-08-11T16:49:37;28.50;99.90
2611;DHT22;5612;51.134;17.058;2022-08-11T16:52:09;28.40;99.90
2611;DHT22;5612;51.134;17.058;2022-08-11T16:54:41;28.50;99.90
2611;DHT22;5612;51.134;17.058;2022-08-11T16:57:14;28.40;99.90
2611;DHT22;5612;51.134;17.058;2022-08-11T17:00:05;28.30;99.90
2611;DHT22;5612;51.134;17.058;2022-08-11T17:02:39;28.20;99.90
2611;DHT22;5612;51.134;17.058;2022-08-11T17:05:27;28.20;99.90
2611;DHT22;5612;51.134;17.058;2022-08-11T17:08:25;28.20;99.90
2611;DHT22;5612;51.134;17.058;2022-08-11T17:11:25;28.20;99.90
2611;DHT22;5612;51.134;17.058;2022-08-11T17:14:15;27.70;99.90
2611;DHT22;5612;51.134;17.058;2022-08-11T17:17:08;27.20;99.90
2611;DHT22;5612;51.134;17.058;2022-08-11T17:19:45;27.10;99.90
2611;DHT22;5612;51.134;17.058;2022-08-11T17:22:36;26.90;99.90
2611;DHT22;5612;51.134;17.058;2022-08-11T17:25:25;26.70;99.90
2611;DHT22;5612;51.134;17.058;2022-08-11T17:28:19;26.60;99.90
2611;DHT22;5612;51.134;17.058;2022-08-11T17:30:53;26.20;99.90
2611;DHT22;5612;51.134;17.058;2022-08-11T17:33:53;25.80;99.90
2611;DHT22;5612;51.134;17.058;2022-08-11T17:36:41;25.60;99.90
2611;DHT22;5612;51.134;17.058;2022-08-11T17:39:12;25.50;99.90
2611;DHT22;5612;51.134;17.058;2022-08-11T17:41:43;25.50;99.90
2611;DHT22;5612;51.134;17.058;2022-08-11T17:44:31;25.50;99.90
2611;DHT22;5612;51.134;17.058;2022-08-11T17:47:22;25.20;99.90
2611;DHT22;5612;51.134;17.058;2022-08-11T17:50:13;25.10;99.90
2611;DHT22;5612;51.134;17.058;2022-08-11T17:52:49;25.00;99.90
2611;DHT22;5612;51.134;17.058;2022-08-11T17:55:38;24.90;99.90
2611;DHT22;5612;51.134;17.058;2022-08-11T17:58:26;24.80;99.90
2611;DHT22;5612;51.134;17.058;2022-08-11T18:01:13;24.90;99.90
2611;DHT22;5612;51.134;17.058;2022-08-11T18:03:44;24.70;99.90
2611;DHT22;5612;51.134;17.058;2022-08-11T18:06:27;24.80;99.90
2611;DHT22;5612;51.134;17.058;2022-08-11T18:09:04;24.90;99.90
2611;DHT22;5612;51.134;17.058;2022-08-11T18:11:52;24.80;99.90
2611;DHT22;5612;51.134;17.058;2022-08-11T18:14:44;24.60;99.90